Zanesville, OH (43701)

3:21 PM EDT on September 26, 2016 (GMT -0400)
APRSWXNET | | Change Station

Elev 839 ft 39.95 °N, 82.00 °W | Updated 48 minutes ago

Overcast
Overcast
64 °F
Feels Like 64 °F
N
0
Wind Variable Wind from SW
Gusts 0.0 mph

Today
High -- | Low -- °F
--% Chance of Precip.
Yesterday
High -- | Low -- °F
Precip. -- in
Pressure 29.98 in
Visibility 10.0 miles
Clouds Mostly Cloudy 2600 ft
Mostly Cloudy 3100 ft
Overcast 4200 ft
Dew Point 63 °F
Humidity 96%
Rainfall in
Snow Depth Not available.
7:19 AM 7:17 PM
Waning Crescent, 17% visible
SPECI KZZV 261911Z AUTO 26004KT 10SM BKN026 BKN031 OVC042 18/16 A2998 RMK AO2 T01780161
Pressure 29.98 in
Visibility 10.0 miles
Clouds Mostly Cloudy 2600 ft
Mostly Cloudy 3100 ft
Overcast 4200 ft
Dew Point 63 °F
Humidity 96%
Rainfall in
Snow Depth Not available.
7:19 AM 7:17 PM
Waning Crescent, 17% visible
SPECI KZZV 261911Z AUTO 26004KT 10SM BKN026 BKN031 OVC042 18/16 A2998 RMK AO2 T01780161

10-Day Weather Forecast

Almanac

Astronomy

Sep. 26, 2016 Rise Set
Actual Time
Civil Twilight
Nautical Twilight
Astronomical Twilight
Moon
Length of Visible Light
Length of Day
Tomorrow will be .
, % of the Moon is Illuminated

Today's Extremes

State Highs State Lows

Community

WunderPhotos

Upload Photos

1,941,954 photos uploaded!

WunderBlog® & News

Nearby

Air Quality

  Air Quality AQ Index Pollutant
Not available.

Snow Depth

Station Depth Elevation

Earthquake Activity

City Distance Mag. Time & Date
Minimum magnitude displayed is 2.5.

Coastal Water Temperatures

Place Temperature

Stations

Nearby Weather Stations

Station Location Temp. Windchill Dew Point Humidity Wind Precip. Elev Updated Type
                   

Watches & Warnings

There are currently no watches in effect.